sensor_id;sensor_type;location;lat;lon;timestamp;temperature;humidity
8965;DHT22;4517;49.020;12.066;2022-12-07T00:01:18;3.30;99.90
8965;DHT22;4517;49.020;12.066;2022-12-07T00:03:46;3.30;99.90
8965;DHT22;4517;49.020;12.066;2022-12-07T00:06:14;3.20;99.90
8965;DHT22;4517;49.020;12.066;2022-12-07T00:08:40;3.20;99.90
8965;DHT22;4517;49.020;12.066;2022-12-07T00:11:08;3.20;99.90
8965;DHT22;4517;49.020;12.066;2022-12-07T00:13:34;3.10;99.90
8965;DHT22;4517;49.020;12.066;2022-12-07T00:16:06;3.10;99.90
8965;DHT22;4517;49.020;12.066;2022-12-07T00:18:32;3.10;99.90
8965;DHT22;4517;49.020;12.066;2022-12-07T00:21:06;3.00;99.90
8965;DHT22;4517;49.020;12.066;2022-12-07T00:23:32;3.00;99.90
8965;DHT22;4517;49.020;12.066;2022-12-07T00:26:16;3.00;99.90
8965;DHT22;4517;49.020;12.066;2022-12-07T00:28:46;3.10;99.90
8965;DHT22;4517;49.020;12.066;2022-12-07T00:31:13;3.10;99.90
8965;DHT22;4517;49.020;12.066;2022-12-07T00:33:39;3.10;99.90
8965;DHT22;4517;49.020;12.066;2022-12-07T00:36:14;3.00;99.90
8965;DHT22;4517;49.020;12.066;2022-12-07T00:38:40;3.00;99.90
8965;DHT22;4517;49.020;12.066;2022-12-07T00:41:11;3.00;99.90
8965;DHT22;4517;49.020;12.066;2022-12-07T00:43:37;3.00;99.90
8965;DHT22;4517;49.020;12.066;2022-12-07T00:46:03;2.90;99.90
8965;DHT22;4517;49.020;12.066;2022-12-07T00:48:29;2.90;99.90
8965;DHT22;4517;49.020;12.066;2022-12-07T00:50:55;2.90;99.90
8965;DHT22;4517;49.020;12.066;2022-12-07T00:53:21;3.00;99.90
8965;DHT22;4517;49.020;12.066;2022-12-07T00:55:46;2.90;99.90
8965;DHT22;4517;49.020;12.066;2022-12-07T00:58:12;2.80;99.90
8965;DHT22;4517;49.020;12.066;2022-12-07T01:00:40;2.90;99.90
8965;DHT22;4517;49.020;12.066;2022-12-07T01:03:06;2.80;99.90
8965;DHT22;4517;49.020;12.066;2022-12-07T01:05:33;2.80;99.90
8965;DHT22;4517;49.020;12.066;2022-12-07T01:07:58;2.80;99.90
8965;DHT22;4517;49.020;12.066;2022-12-07T01:10:24;2.80;99.90
8965;DHT22;4517;49.020;12.066;2022-12-07T01:12:50;2.80;99.90
8965;DHT22;4517;49.020;12.066;2022-12-07T01:15:16;2.90;99.90
8965;DHT22;4517;49.020;12.066;2022-12-07T01:17:41;2.80;99.90
8965;DHT22;4517;49.020;12.066;2022-12-07T01:20:07;3.00;99.90
8965;DHT22;4517;49.020;12.066;2022-12-07T01:22:37;3.00;99.90
8965;DHT22;4517;49.020;12.066;2022-12-07T01:25:05;2.90;99.90
8965;DHT22;4517;49.020;12.066;2022-12-07T01:27:31;2.90;99.90
8965;DHT22;4517;49.020;12.066;2022-12-07T01:29:57;2.90;99.90
8965;DHT22;4517;49.020;12.066;2022-12-07T01:32:22;2.90;99.90
8965;DHT22;4517;49.020;12.066;2022-12-07T01:34:48;2.90;99.90
8965;DHT22;4517;49.020;12.066;2022-12-07T01:37:14;2.90;99.90
8965;DHT22;4517;49.020;12.066;2022-12-07T01:39:39;2.80;99.90
8965;DHT22;4517;49.020;12.066;2022-12-07T01:42:11;2.80;99.90
8965;DHT22;4517;49.020;12.066;2022-12-07T01:47:42;3.00;99.90
8965;DHT22;4517;49.020;12.066;2022-12-07T01:50:09;3.00;99.90
8965;DHT22;4517;49.020;12.066;2022-12-07T01:52:36;3.00;99.90
8965;DHT22;4517;49.020;12.066;2022-12-07T01:55:06;3.00;99.90
8965;DHT22;4517;49.020;12.066;2022-12-07T01:57:34;2.90;99.90
8965;DHT22;4517;49.020;12.066;2022-12-07T02:00:02;3.00;99.90
8965;DHT22;4517;49.020;12.066;2022-12-07T02:02:35;3.00;99.90
8965;DHT22;4517;49.020;12.066;2022-12-07T02:05:04;3.00;99.90
8965;DHT22;4517;49.020;12.066;2022-12-07T02:07:31;3.00;99.90
8965;DHT22;4517;49.020;12.066;2022-12-07T02:10:11;3.00;99.90
8965;DHT22;4517;49.020;12.066;2022-12-07T02:12:36;3.00;99.90
8965;DHT22;4517;49.020;12.066;2022-12-07T02:15:02;3.00;99.90
8965;DHT22;4517;49.020;12.066;2022-12-07T02:17:39;2.90;99.90
8965;DHT22;4517;49.020;12.066;2022-12-07T02:28:37;2.90;99.90
8965;DHT22;4517;49.020;12.066;2022-12-07T02:31:10;2.90;99.90
8965;DHT22;4517;49.020;12.066;2022-12-07T02:33:46;2.90;99.90
8965;DHT22;4517;49.020;12.066;2022-12-07T02:36:19;2.80;99.90
8965;DHT22;4517;49.020;12.066;2022-12-07T02:39:03;2.90;99.90
8965;DHT22;4517;49.020;12.066;2022-12-07T02:41:37;2.80;99.90
8965;DHT22;4517;49.020;12.066;2022-12-07T02:44:12;2.80;99.90
8965;DHT22;4517;49.020;12.066;2022-12-07T02:46:47;2.80;99.90
8965;DHT22;4517;49.020;12.066;2022-12-07T02:49:15;2.90;99.90
8965;DHT22;4517;49.020;12.066;2022-12-07T02:51:44;2.90;99.90
8965;DHT22;4517;49.020;12.066;2022-12-07T02:54:12;2.80;99.90
8965;DHT22;4517;49.020;12.066;2022-12-07T02:56:40;2.70;99.90
8965;DHT22;4517;49.020;12.066;2022-12-07T03:04:56;2.40;99.90
8965;DHT22;4517;49.020;12.066;2022-12-07T03:10:14;2.40;99.90
8965;DHT22;4517;49.020;12.066;2022-12-07T03:15:44;2.40;99.90
8965;DHT22;4517;49.020;12.066;2022-12-07T03:18:13;2.40;99.90
8965;DHT22;4517;49.020;12.066;2022-12-07T03:20:41;2.50;99.90
8965;DHT22;4517;49.020;12.066;2022-12-07T03:23:10;2.40;99.90
8965;DHT22;4517;49.020;12.066;2022-12-07T03:25:43;2.40;99.90
8965;DHT22;4517;49.020;12.066;2022-12-07T03:28:12;2.50;99.90
8965;DHT22;4517;49.020;12.066;2022-12-07T03:30:44;2.60;99.90
8965;DHT22;4517;49.020;12.066;2022-12-07T03:33:24;2.50;99.90
8965;DHT22;4517;49.020;12.066;2022-12-07T03:36:04;2.50;99.90
8965;DHT22;4517;49.020;12.066;2022-12-07T03:38:39;2.50;99.90
8965;DHT22;4517;49.020;12.066;2022-12-07T03:41:10;2.60;99.90
8965;DHT22;4517;49.020;12.066;2022-12-07T03:43:38;2.60;99.90
8965;DHT22;4517;49.020;12.066;2022-12-07T03:49:22;2.50;99.90
8965;DHT22;4517;49.020;12.066;2022-12-07T03:51:57;2.50;99.90
8965;DHT22;4517;49.020;12.066;2022-12-07T03:56:57;2.50;99.90
8965;DHT22;4517;49.020;12.066;2022-12-07T03:59:24;2.50;99.90
8965;DHT22;4517;49.020;12.066;2022-12-07T04:01:55;2.40;99.90
8965;DHT22;4517;49.020;12.066;2022-12-07T04:04:23;2.40;99.90
8965;DHT22;4517;49.020;12.066;2022-12-07T04:06:50;2.40;99.90
8965;DHT22;4517;49.020;12.066;2022-12-07T04:09:16;2.50;99.90
8965;DHT22;4517;49.020;12.066;2022-12-07T04:11:42;2.50;99.90
8965;DHT22;4517;49.020;12.066;2022-12-07T04:14:08;2.50;99.90
8965;DHT22;4517;49.020;12.066;2022-12-07T04:16:51;2.40;99.90
8965;DHT22;4517;49.020;12.066;2022-12-07T04:19:20;2.50;99.90
8965;DHT22;4517;49.020;12.066;2022-12-07T04:21:46;2.40;99.90
8965;DHT22;4517;49.020;12.066;2022-12-07T04:24:13;2.40;99.90
8965;DHT22;4517;49.020;12.066;2022-12-07T04:26:39;2.40;99.90
8965;DHT22;4517;49.020;12.066;2022-12-07T04:29:05;2.40;99.90
8965;DHT22;4517;49.020;12.066;2022-12-07T04:31:30;2.40;99.90
8965;DHT22;4517;49.020;12.066;2022-12-07T04:33:56;2.40;99.90
8965;DHT22;4517;49.020;12.066;2022-12-07T04:36:22;2.40;99.90
8965;DHT22;4517;49.020;12.066;2022-12-07T04:38:48;2.40;99.90
8965;DHT22;4517;49.020;12.066;2022-12-07T04:41:13;2.40;99.90
8965;DHT22;4517;49.020;12.066;2022-12-07T04:43:39;2.40;99.90
8965;DHT22;4517;49.020;12.066;2022-12-07T04:46:04;2.40;99.90
8965;DHT22;4517;49.020;12.066;2022-12-07T04:48:30;2.40;99.90
8965;DHT22;4517;49.020;12.066;2022-12-07T04:50:56;2.40;99.90
8965;DHT22;4517;49.020;12.066;2022-12-07T04:53:22;2.40;99.90
8965;DHT22;4517;49.020;12.066;2022-12-07T04:55:48;2.30;99.90
8965;DHT22;4517;49.020;12.066;2022-12-07T04:58:13;2.30;99.90
8965;DHT22;4517;49.020;12.066;2022-12-07T05:00:39;2.30;99.90
8965;DHT22;4517;49.020;12.066;2022-12-07T05:03:05;2.10;99.90
8965;DHT22;4517;49.020;12.066;2022-12-07T05:05:30;2.00;99.90
8965;DHT22;4517;49.020;12.066;2022-12-07T05:07:56;1.80;99.90
8965;DHT22;4517;49.020;12.066;2022-12-07T05:10:22;1.70;99.90
8965;DHT22;4517;49.020;12.066;2022-12-07T05:12:47;1.70;99.90
8965;DHT22;4517;49.020;12.066;2022-12-07T05:15:14;1.60;99.90
8965;DHT22;4517;49.020;12.066;2022-12-07T05:17:40;1.40;99.90
8965;DHT22;4517;49.020;12.066;2022-12-07T05:20:06;1.20;99.90
8965;DHT22;4517;49.020;12.066;2022-12-07T05:22:32;1.00;99.90
8965;DHT22;4517;49.020;12.066;2022-12-07T05:24:58;0.80;99.90
8965;DHT22;4517;49.020;12.066;2022-12-07T05:27:23;0.60;99.90
8965;DHT22;4517;49.020;12.066;2022-12-07T05:29:52;0.60;99.90
8965;DHT22;4517;49.020;12.066;2022-12-07T05:32:17;0.40;99.90
8965;DHT22;4517;49.020;12.066;2022-12-07T05:34:43;0.40;99.90
8965;DHT22;4517;49.020;12.066;2022-12-07T05:37:09;0.30;99.90
8965;DHT22;4517;49.020;12.066;2022-12-07T05:39:34;0.10;99.90
8965;DHT22;4517;49.020;12.066;2022-12-07T05:42:00;-0.10;99.90
8965;DHT22;4517;49.020;12.066;2022-12-07T05:44:38;-0.20;99.90
8965;DHT22;4517;49.020;12.066;2022-12-07T05:47:03;-0.20;99.90
8965;DHT22;4517;49.020;12.066;2022-12-07T05:49:29;-0.20;99.90
8965;DHT22;4517;49.020;12.066;2022-12-07T05:51:55;0.00;99.90
8965;DHT22;4517;49.020;12.066;2022-12-07T05:54:21;0.10;99.90
8965;DHT22;4517;49.020;12.066;2022-12-07T05:56:46;0.20;99.90
8965;DHT22;4517;49.020;12.066;2022-12-07T05:59:12;0.20;99.90
8965;DHT22;4517;49.020;12.066;2022-12-07T06:01:52;0.00;99.90
8965;DHT22;4517;49.020;12.066;2022-12-07T06:04:17;-0.10;99.90
8965;DHT22;4517;49.020;12.066;2022-12-07T06:06:43;-0.10;99.90
8965;DHT22;4517;49.020;12.066;2022-12-07T06:09:10;-0.20;99.90
8965;DHT22;4517;49.020;12.066;2022-12-07T06:11:35;-0.20;99.90
8965;DHT22;4517;49.020;12.066;2022-12-07T06:14:20;-0.30;99.90
8965;DHT22;4517;49.020;12.066;2022-12-07T06:16:46;-0.30;99.90
8965;DHT22;4517;49.020;12.066;2022-12-07T06:19:11;-0.40;99.90
8965;DHT22;4517;49.020;12.066;2022-12-07T06:21:37;-0.40;99.90
8965;DHT22;4517;49.020;12.066;2022-12-07T06:24:02;-0.40;99.90
8965;DHT22;4517;49.020;12.066;2022-12-07T06:26:28;-0.40;99.90
8965;DHT22;4517;49.020;12.066;2022-12-07T06:28:54;-0.30;99.90
8965;DHT22;4517;49.020;12.066;2022-12-07T06:31:19;-0.20;99.90
8965;DHT22;4517;49.020;12.066;2022-12-07T06:33:45;-0.20;99.90
8965;DHT22;4517;49.020;12.066;2022-12-07T06:36:10;-0.30;99.90
8965;DHT22;4517;49.020;12.066;2022-12-07T06:38:36;-0.30;99.90
8965;DHT22;4517;49.020;12.066;2022-12-07T06:41:02;-0.40;99.90
8965;DHT22;4517;49.020;12.066;2022-12-07T06:43:27;-0.40;99.90
8965;DHT22;4517;49.020;12.066;2022-12-07T06:45:53;-0.50;99.90
8965;DHT22;4517;49.020;12.066;2022-12-07T06:48:19;-0.50;99.90
8965;DHT22;4517;49.020;12.066;2022-12-07T06:50:45;-0.50;99.90
8965;DHT22;4517;49.020;12.066;2022-12-07T06:53:11;-0.50;99.90
8965;DHT22;4517;49.020;12.066;2022-12-07T06:55:36;-0.50;99.90
8965;DHT22;4517;49.020;12.066;2022-12-07T06:58:02;-0.40;99.90
8965;DHT22;4517;49.020;12.066;2022-12-07T07:00:28;-0.30;99.90
8965;DHT22;4517;49.020;12.066;2022-12-07T07:02:54;-0.20;99.90
8965;DHT22;4517;49.020;12.066;2022-12-07T07:05:19;-0.10;99.90
8965;DHT22;4517;49.020;12.066;2022-12-07T07:07:48;0.00;99.90
8965;DHT22;4517;49.020;12.066;2022-12-07T07:10:13;0.00;99.90
8965;DHT22;4517;49.020;12.066;2022-12-07T07:12:39;0.20;99.90
8965;DHT22;4517;49.020;12.066;2022-12-07T07:15:05;0.30;99.90
8965;DHT22;4517;49.020;12.066;2022-12-07T07:17:30;0.30;99.90
8965;DHT22;4517;49.020;12.066;2022-12-07T07:19:56;0.40;99.90
8965;DHT22;4517;49.020;12.066;2022-12-07T07:22:22;0.50;99.90
8965;DHT22;4517;49.020;12.066;2022-12-07T07:24:47;0.70;99.90
8965;DHT22;4517;49.020;12.066;2022-12-07T07:27:13;0.80;99.90
8965;DHT22;4517;49.020;12.066;2022-12-07T07:29:38;0.90;99.90
8965;DHT22;4517;49.020;12.066;2022-12-07T07:32:04;1.00;99.90
8965;DHT22;4517;49.020;12.066;2022-12-07T07:34:30;1.10;99.90
8965;DHT22;4517;49.020;12.066;2022-12-07T07:36:55;1.20;99.90
8965;DHT22;4517;49.020;12.066;2022-12-07T07:39:21;1.20;99.90
8965;DHT22;4517;49.020;12.066;2022-12-07T07:41:46;1.20;99.90
8965;DHT22;4517;49.020;12.066;2022-12-07T07:44:13;1.30;99.90
8965;DHT22;4517;49.020;12.066;2022-12-07T07:46:39;1.30;99.90
8965;DHT22;4517;49.020;12.066;2022-12-07T07:49:04;1.30;99.90
8965;DHT22;4517;49.020;12.066;2022-12-07T07:51:30;1.30;99.90
8965;DHT22;4517;49.020;12.066;2022-12-07T07:53:56;1.30;99.90
8965;DHT22;4517;49.020;12.066;2022-12-07T07:56:21;1.40;99.90
8965;DHT22;4517;49.020;12.066;2022-12-07T07:58:47;1.50;99.90
8965;DHT22;4517;49.020;12.066;2022-12-07T08:01:12;1.60;99.90
8965;DHT22;4517;49.020;12.066;2022-12-07T08:03:39;1.70;99.90
8965;DHT22;4517;49.020;12.066;2022-12-07T08:06:04;1.80;99.90
8965;DHT22;4517;49.020;12.066;2022-12-07T08:08:31;1.90;99.90
8965;DHT22;4517;49.020;12.066;2022-12-07T08:10:56;2.00;99.90
8965;DHT22;4517;49.020;12.066;2022-12-07T08:13:27;2.10;99.90
8965;DHT22;4517;49.020;12.066;2022-12-07T08:15:53;2.20;99.90
8965;DHT22;4517;49.020;12.066;2022-12-07T08:18:19;2.40;99.90
8965;DHT22;4517;49.020;12.066;2022-12-07T08:20:44;2.40;99.90
8965;DHT22;4517;49.020;12.066;2022-12-07T08:23:10;2.40;99.90
8965;DHT22;4517;49.020;12.066;2022-12-07T08:25:36;2.50;99.90
8965;DHT22;4517;49.020;12.066;2022-12-07T08:28:02;2.50;99.90
8965;DHT22;4517;49.020;12.066;2022-12-07T08:30:28;2.60;99.90
8965;DHT22;4517;49.020;12.066;2022-12-07T08:32:55;2.60;99.90
8965;DHT22;4517;49.020;12.066;2022-12-07T08:35:21;2.70;99.90
8965;DHT22;4517;49.020;12.066;2022-12-07T08:37:46;2.70;99.90
8965;DHT22;4517;49.020;12.066;2022-12-07T08:40:12;2.80;99.90
8965;DHT22;4517;49.020;12.066;2022-12-07T08:42:51;2.90;99.90
8965;DHT22;4517;49.020;12.066;2022-12-07T08:45:18;2.90;99.90
8965;DHT22;4517;49.020;12.066;2022-12-07T08:47:55;2.90;99.90
8965;DHT22;4517;49.020;12.066;2022-12-07T08:50:21;2.90;99.90
8965;DHT22;4517;49.020;12.066;2022-12-07T08:52:54;2.90;99.90
8965;DHT22;4517;49.020;12.066;2022-12-07T08:55:20;3.00;99.90
8965;DHT22;4517;49.020;12.066;2022-12-07T08:57:46;3.10;99.90
8965;DHT22;4517;49.020;12.066;2022-12-07T09:00:12;3.10;99.90
8965;DHT22;4517;49.020;12.066;2022-12-07T09:02:38;3.10;99.90
8965;DHT22;4517;49.020;12.066;2022-12-07T09:05:04;3.10;99.90
8965;DHT22;4517;49.020;12.066;2022-12-07T09:07:32;3.10;99.90
8965;DHT22;4517;49.020;12.066;2022-12-07T09:09:58;3.20;99.90
8965;DHT22;4517;49.020;12.066;2022-12-07T09:12:23;3.20;99.90
8965;DHT22;4517;49.020;12.066;2022-12-07T09:14:49;3.30;99.90
8965;DHT22;4517;49.020;12.066;2022-12-07T09:17:14;3.30;99.90
8965;DHT22;4517;49.020;12.066;2022-12-07T09:19:40;3.30;99.90
8965;DHT22;4517;49.020;12.066;2022-12-07T09:22:07;3.40;99.90
8965;DHT22;4517;49.020;12.066;2022-12-07T09:24:33;3.40;99.90
8965;DHT22;4517;49.020;12.066;2022-12-07T09:26:59;3.50;99.90
8965;DHT22;4517;49.020;12.066;2022-12-07T09:29:25;3.50;99.90
8965;DHT22;4517;49.020;12.066;2022-12-07T09:31:51;3.70;99.90
8965;DHT22;4517;49.020;12.066;2022-12-07T09:34:17;3.60;99.90
8965;DHT22;4517;49.020;12.066;2022-12-07T09:36:43;3.70;99.90
8965;DHT22;4517;49.020;12.066;2022-12-07T09:39:08;3.80;99.90
8965;DHT22;4517;49.020;12.066;2022-12-07T09:41:41;3.90;99.90
8965;DHT22;4517;49.020;12.066;2022-12-07T09:44:13;4.00;99.90
8965;DHT22;4517;49.020;12.066;2022-12-07T09:46:41;4.10;99.90
8965;DHT22;4517;49.020;12.066;2022-12-07T09:49:12;4.20;99.90
8965;DHT22;4517;49.020;12.066;2022-12-07T09:51:38;4.20;99.90
8965;DHT22;4517;49.020;12.066;2022-12-07T09:54:04;4.20;99.90
8965;DHT22;4517;49.020;12.066;2022-12-07T09:56:30;4.30;99.90
8965;DHT22;4517;49.020;12.066;2022-12-07T09:59:01;4.30;99.90
8965;DHT22;4517;49.020;12.066;2022-12-07T10:01:30;4.20;99.90
8965;DHT22;4517;49.020;12.066;2022-12-07T10:04:19;4.20;99.90
8965;DHT22;4517;49.020;12.066;2022-12-07T10:06:47;4.10;99.90
8965;DHT22;4517;49.020;12.066;2022-12-07T10:09:15;4.00;99.90
8965;DHT22;4517;49.020;12.066;2022-12-07T10:12:07;4.00;99.90
8965;DHT22;4517;49.020;12.066;2022-12-07T10:14:37;4.10;99.90
8965;DHT22;4517;49.020;12.066;2022-12-07T10:17:05;4.20;99.90
8965;DHT22;4517;49.020;12.066;2022-12-07T10:19:48;4.20;99.90
8965;DHT22;4517;49.020;12.066;2022-12-07T10:22:16;4.20;99.90
8965;DHT22;4517;49.020;12.066;2022-12-07T10:24:43;4.20;99.90
8965;DHT22;4517;49.020;12.066;2022-12-07T10:27:19;4.30;99.90
8965;DHT22;4517;49.020;12.066;2022-12-07T10:29:52;4.30;99.90
8965;DHT22;4517;49.020;12.066;2022-12-07T10:34:44;4.50;99.90
8965;DHT22;4517;49.020;12.066;2022-12-07T10:39:47;4.30;99.90
8965;DHT22;4517;49.020;12.066;2022-12-07T10:42:22;4.40;99.90
8965;DHT22;4517;49.020;12.066;2022-12-07T10:44:49;4.40;99.90
8965;DHT22;4517;49.020;12.066;2022-12-07T10:47:25;4.40;99.90
8965;DHT22;4517;49.020;12.066;2022-12-07T10:50:17;4.50;99.90
8965;DHT22;4517;49.020;12.066;2022-12-07T10:55:21;4.50;99.90
8965;DHT22;4517;49.020;12.066;2022-12-07T10:58:16;4.60;99.90
8965;DHT22;4517;49.020;12.066;2022-12-07T11:06:52;4.90;99.90
8965;DHT22;4517;49.020;12.066;2022-12-07T11:17:45;4.60;99.90
8965;DHT22;4517;49.020;12.066;2022-12-07T11:20:29;4.60;99.90
8965;DHT22;4517;49.020;12.066;2022-12-07T11:26:08;4.80;99.90
8965;DHT22;4517;49.020;12.066;2022-12-07T11:31:33;5.00;99.90
8965;DHT22;4517;49.020;12.066;2022-12-07T11:37:02;5.00;99.90
8965;DHT22;4517;49.020;12.066;2022-12-07T11:39:36;5.10;99.90
8965;DHT22;4517;49.020;12.066;2022-12-07T11:42:09;5.00;99.90
8965;DHT22;4517;49.020;12.066;2022-12-07T11:44:55;5.00;99.90
8965;DHT22;4517;49.020;12.066;2022-12-07T11:50:26;4.90;99.90
8965;DHT22;4517;49.020;12.066;2022-12-07T11:53:03;4.90;99.90
8965;DHT22;4517;49.020;12.066;2022-12-07T12:03:47;5.00;99.90
8965;DHT22;4517;49.020;12.066;2022-12-07T12:06:13;5.00;99.90
8965;DHT22;4517;49.020;12.066;2022-12-07T12:08:55;5.00;99.90
8965;DHT22;4517;49.020;12.066;2022-12-07T12:14:36;4.90;99.90
8965;DHT22;4517;49.020;12.066;2022-12-07T12:22:49;4.90;99.90
8965;DHT22;4517;49.020;12.066;2022-12-07T12:25:27;4.80;99.90
8965;DHT22;4517;49.020;12.066;2022-12-07T12:27:56;4.70;99.90
8965;DHT22;4517;49.020;12.066;2022-12-07T12:30:38;4.70;99.90
8965;DHT22;4517;49.020;12.066;2022-12-07T12:33:27;4.50;99.90
8965;DHT22;4517;49.020;12.066;2022-12-07T12:39:10;4.50;99.90
8965;DHT22;4517;49.020;12.066;2022-12-07T12:46:56;4.30;99.90
8965;DHT22;4517;49.020;12.066;2022-12-07T12:51:52;4.50;99.90
8965;DHT22;4517;49.020;12.066;2022-12-07T12:57:06;4.60;99.90
8965;DHT22;4517;49.020;12.066;2022-12-07T12:59:56;4.70;99.90
8965;DHT22;4517;49.020;12.066;2022-12-07T13:15:53;4.60;99.90
8965;DHT22;4517;49.020;12.066;2022-12-07T13:21:00;4.50;99.90
8965;DHT22;4517;49.020;12.066;2022-12-07T13:23:29;4.50;99.90
8965;DHT22;4517;49.020;12.066;2022-12-07T13:29:12;4.50;99.90
8965;DHT22;4517;49.020;12.066;2022-12-07T13:34:38;4.60;99.90
8965;DHT22;4517;49.020;12.066;2022-12-07T13:37:24;4.50;99.90
8965;DHT22;4517;49.020;12.066;2022-12-07T13:42:32;4.60;99.90
8965;DHT22;4517;49.020;12.066;2022-12-07T13:44:59;4.60;99.90
8965;DHT22;4517;49.020;12.066;2022-12-07T13:47:35;4.60;99.90
8965;DHT22;4517;49.020;12.066;2022-12-07T13:50:20;4.60;99.90
8965;DHT22;4517;49.020;12.066;2022-12-07T13:52:47;4.70;99.90
8965;DHT22;4517;49.020;12.066;2022-12-07T13:55:15;4.70;99.90
8965;DHT22;4517;49.020;12.066;2022-12-07T13:57:44;4.70;99.90
8965;DHT22;4517;49.020;12.066;2022-12-07T14:00:17;4.60;99.90
8965;DHT22;4517;49.020;12.066;2022-12-07T14:03:04;4.60;99.90
8965;DHT22;4517;49.020;12.066;2022-12-07T14:05:32;4.60;99.90
8965;DHT22;4517;49.020;12.066;2022-12-07T14:10:39;4.60;99.90
8965;DHT22;4517;49.020;12.066;2022-12-07T14:13:34;4.60;99.90
8965;DHT22;4517;49.020;12.066;2022-12-07T14:16:28;4.50;99.90
8965;DHT22;4517;49.020;12.066;2022-12-07T14:18:53;4.50;99.90
8965;DHT22;4517;49.020;12.066;2022-12-07T14:21:22;4.50;99.90
8965;DHT22;4517;49.020;12.066;2022-12-07T14:24:11;4.50;99.90
8965;DHT22;4517;49.020;12.066;2022-12-07T14:26:39;4.50;99.90
8965;DHT22;4517;49.020;12.066;2022-12-07T14:31:57;4.40;99.90
8965;DHT22;4517;49.020;12.066;2022-12-07T14:34:23;4.40;99.90
8965;DHT22;4517;49.020;12.066;2022-12-07T14:36:49;4.30;99.90
8965;DHT22;4517;49.020;12.066;2022-12-07T14:39:15;4.30;99.90
8965;DHT22;4517;49.020;12.066;2022-12-07T14:41:42;4.30;99.90
8965;DHT22;4517;49.020;12.066;2022-12-07T14:44:20;4.30;99.90
8965;DHT22;4517;49.020;12.066;2022-12-07T14:46:50;4.20;99.90
8965;DHT22;4517;49.020;12.066;2022-12-07T14:49:17;4.20;99.90
8965;DHT22;4517;49.020;12.066;2022-12-07T14:51:44;4.20;99.90
8965;DHT22;4517;49.020;12.066;2022-12-07T14:54:17;4.20;99.90
8965;DHT22;4517;49.020;12.066;2022-12-07T14:56:44;4.10;99.90
8965;DHT22;4517;49.020;12.066;2022-12-07T14:59:11;4.10;99.90
8965;DHT22;4517;49.020;12.066;2022-12-07T15:01:37;4.00;99.90
8965;DHT22;4517;49.020;12.066;2022-12-07T15:04:03;4.00;99.90
8965;DHT22;4517;49.020;12.066;2022-12-07T15:06:28;3.90;99.90
8965;DHT22;4517;49.020;12.066;2022-12-07T15:08:54;3.90;99.90
8965;DHT22;4517;49.020;12.066;2022-12-07T15:11:20;3.80;99.90
8965;DHT22;4517;49.020;12.066;2022-12-07T15:13:46;3.70;99.90
8965;DHT22;4517;49.020;12.066;2022-12-07T15:16:30;3.70;99.90
8965;DHT22;4517;49.020;12.066;2022-12-07T15:18:56;3.70;99.90
8965;DHT22;4517;49.020;12.066;2022-12-07T15:21:21;3.60;99.90
8965;DHT22;4517;49.020;12.066;2022-12-07T15:23:47;3.60;99.90
8965;DHT22;4517;49.020;12.066;2022-12-07T15:26:13;3.50;99.90
8965;DHT22;4517;49.020;12.066;2022-12-07T15:28:39;3.40;99.90
8965;DHT22;4517;49.020;12.066;2022-12-07T15:31:12;3.40;99.90
8965;DHT22;4517;49.020;12.066;2022-12-07T15:33:37;3.40;99.90
8965;DHT22;4517;49.020;12.066;2022-12-07T15:36:03;3.40;99.90
8965;DHT22;4517;49.020;12.066;2022-12-07T15:38:29;3.40;99.90
8965;DHT22;4517;49.020;12.066;2022-12-07T15:40:56;3.40;99.90
8965;DHT22;4517;49.020;12.066;2022-12-07T15:43:22;3.30;99.90
8965;DHT22;4517;49.020;12.066;2022-12-07T15:46:06;3.30;99.90
8965;DHT22;4517;49.020;12.066;2022-12-07T15:48:31;3.30;99.90
8965;DHT22;4517;49.020;12.066;2022-12-07T15:51:05;3.20;99.90
8965;DHT22;4517;49.020;12.066;2022-12-07T15:53:31;3.20;99.90
8965;DHT22;4517;49.020;12.066;2022-12-07T15:55:56;3.20;99.90
8965;DHT22;4517;49.020;12.066;2022-12-07T15:58:22;3.20;99.90
8965;DHT22;4517;49.020;12.066;2022-12-07T16:00:47;3.20;99.90
8965;DHT22;4517;49.020;12.066;2022-12-07T16:03:13;3.20;99.90
8965;DHT22;4517;49.020;12.066;2022-12-07T16:05:39;3.20;99.90
8965;DHT22;4517;49.020;12.066;2022-12-07T16:08:05;3.30;99.90
8965;DHT22;4517;49.020;12.066;2022-12-07T16:10:30;3.30;99.90
8965;DHT22;4517;49.020;12.066;2022-12-07T16:12:56;3.30;99.90
8965;DHT22;4517;49.020;12.066;2022-12-07T16:15:22;3.30;99.90
8965;DHT22;4517;49.020;12.066;2022-12-07T16:17:49;3.20;99.90
8965;DHT22;4517;49.020;12.066;2022-12-07T16:20:15;3.20;99.90
8965;DHT22;4517;49.020;12.066;2022-12-07T16:22:40;3.20;99.90
8965;DHT22;4517;49.020;12.066;2022-12-07T16:25:06;3.30;99.90
8965;DHT22;4517;49.020;12.066;2022-12-07T16:27:32;3.20;99.90
8965;DHT22;4517;49.020;12.066;2022-12-07T16:29:57;3.20;99.90
8965;DHT22;4517;49.020;12.066;2022-12-07T16:32:23;3.20;99.90
8965;DHT22;4517;49.020;12.066;2022-12-07T16:34:49;3.20;99.90
8965;DHT22;4517;49.020;12.066;2022-12-07T16:37:14;3.20;99.90
8965;DHT22;4517;49.020;12.066;2022-12-07T16:39:40;3.20;99.90
8965;DHT22;4517;49.020;12.066;2022-12-07T16:42:05;3.20;99.90
8965;DHT22;4517;49.020;12.066;2022-12-07T16:44:31;3.20;99.90
8965;DHT22;4517;49.020;12.066;2022-12-07T16:46:56;3.20;99.90
8965;DHT22;4517;49.020;12.066;2022-12-07T16:49:22;3.20;99.90
8965;DHT22;4517;49.020;12.066;2022-12-07T16:51:50;3.20;99.90
8965;DHT22;4517;49.020;12.066;2022-12-07T16:54:15;3.20;99.90
8965;DHT22;4517;49.020;12.066;2022-12-07T16:56:41;3.10;99.90
8965;DHT22;4517;49.020;12.066;2022-12-07T16:59:07;3.00;99.90
8965;DHT22;4517;49.020;12.066;2022-12-07T17:01:33;3.00;99.90
8965;DHT22;4517;49.020;12.066;2022-12-07T17:03:59;3.00;99.90
8965;DHT22;4517;49.020;12.066;2022-12-07T17:06:26;3.00;99.90
8965;DHT22;4517;49.020;12.066;2022-12-07T17:08:53;3.00;99.90
8965;DHT22;4517;49.020;12.066;2022-12-07T17:11:24;3.00;99.90
8965;DHT22;4517;49.020;12.066;2022-12-07T17:13:51;3.00;99.90
8965;DHT22;4517;49.020;12.066;2022-12-07T17:16:36;3.00;99.90
8965;DHT22;4517;49.020;12.066;2022-12-07T17:19:05;3.00;99.90
8965;DHT22;4517;49.020;12.066;2022-12-07T17:21:31;3.00;99.90
8965;DHT22;4517;49.020;12.066;2022-12-07T17:24:02;2.90;99.90
8965;DHT22;4517;49.020;12.066;2022-12-07T17:26:29;2.90;99.90
8965;DHT22;4517;49.020;12.066;2022-12-07T17:28:55;2.90;99.90
8965;DHT22;4517;49.020;12.066;2022-12-07T17:31:22;2.90;99.90
8965;DHT22;4517;49.020;12.066;2022-12-07T17:33:48;2.90;99.90
8965;DHT22;4517;49.020;12.066;2022-12-07T17:36:16;2.90;99.90
8965;DHT22;4517;49.020;12.066;2022-12-07T17:38:42;2.90;99.90
8965;DHT22;4517;49.020;12.066;2022-12-07T17:41:12;2.90;99.90
8965;DHT22;4517;49.020;12.066;2022-12-07T17:43:58;2.80;99.90
8965;DHT22;4517;49.020;12.066;2022-12-07T17:46:24;2.90;99.90
8965;DHT22;4517;49.020;12.066;2022-12-07T17:48:50;2.90;99.90
8965;DHT22;4517;49.020;12.066;2022-12-07T17:51:15;2.80;99.90
8965;DHT22;4517;49.020;12.066;2022-12-07T17:53:59;2.80;99.90
8965;DHT22;4517;49.020;12.066;2022-12-07T17:56:25;2.90;99.90
8965;DHT22;4517;49.020;12.066;2022-12-07T17:58:50;2.80;99.90
8965;DHT22;4517;49.020;12.066;2022-12-07T18:01:16;2.80;99.90
8965;DHT22;4517;49.020;12.066;2022-12-07T18:03:41;2.80;99.90
8965;DHT22;4517;49.020;12.066;2022-12-07T18:06:07;2.80;99.90
8965;DHT22;4517;49.020;12.066;2022-12-07T18:08:35;2.80;99.90
8965;DHT22;4517;49.020;12.066;2022-12-07T18:11:03;2.80;99.90
8965;DHT22;4517;49.020;12.066;2022-12-07T18:13:29;2.80;99.90